createdAt,value
2023-02-13T00:00:38.635Z,27.35
2023-02-13T00:03:05.596Z,23.25
2023-02-13T00:05:32.258Z,22.60
2023-02-13T00:07:58.808Z,24.10
2023-02-13T00:10:25.374Z,21.75
2023-02-13T00:12:51.946Z,20.38
2023-02-13T00:15:18.734Z,21.70
2023-02-13T00:17:45.404Z,20.13
2023-02-13T00:20:12.501Z,20.27
2023-02-13T00:22:39.828Z,19.27
2023-02-13T00:25:07.624Z,19.55
2023-02-13T00:27:34.641Z,18.83
2023-02-13T00:30:01.244Z,18.50
2023-02-13T00:32:27.896Z,17.65
2023-02-13T00:34:54.442Z,18.38
2023-02-13T00:37:21.543Z,17.77
2023-02-13T00:39:48.157Z,19.55
2023-02-13T00:42:14.686Z,18.52
2023-02-13T00:44:41.305Z,18.50
2023-02-13T00:47:07.882Z,18.70
2023-02-13T00:49:34.429Z,17.75
2023-02-13T00:52:01.036Z,17.00
2023-02-13T00:54:27.643Z,17.42
2023-02-13T00:56:54.279Z,17.95
2023-02-13T00:59:20.918Z,18.60
2023-02-13T01:01:47.510Z,18.23
2023-02-13T01:04:14.084Z,18.15
2023-02-13T01:06:40.695Z,17.45
2023-02-13T01:09:07.412Z,17.35
2023-02-13T01:11:34.017Z,21.63
2023-02-13T01:14:01.223Z,20.85
2023-02-13T01:16:27.956Z,18.55
2023-02-13T01:18:54.667Z,18.92
2023-02-13T01:21:23.821Z,19.05
2023-02-13T01:23:51.570Z,17.63
2023-02-13T01:26:24.435Z,17.60
2023-02-13T01:28:55.058Z,17.30
2023-02-13T01:31:22.326Z,18.13
2023-02-13T01:33:49.097Z,17.50
2023-02-13T01:36:15.814Z,17.40
2023-02-13T01:38:42.545Z,19.55
2023-02-13T01:41:10.110Z,17.27
2023-02-13T01:43:54.886Z,17.55
2023-02-13T01:46:30.553Z,17.50
2023-02-13T01:49:03.323Z,17.67
2023-02-13T01:51:34.955Z,20.65
2023-02-13T01:54:05.972Z,24.33
2023-02-13T01:56:46.789Z,29.80
2023-02-13T01:59:19.318Z,20.42
2023-02-13T02:01:46.115Z,22.88
2023-02-13T02:04:19.934Z,23.70
2023-02-13T02:06:51.614Z,23.38
2023-02-13T02:09:22.451Z,20.65
2023-02-13T02:12:12.372Z,23.08
2023-02-13T02:17:06.518Z,25.80
2023-02-13T02:19:42.475Z,25.40
2023-02-13T02:22:27.048Z,25.17
2023-02-13T02:25:21.813Z,21.30
2023-02-13T02:28:15.714Z,21.10
2023-02-13T02:31:01.455Z,20.80
2023-02-13T02:33:49.922Z,21.08
2023-02-13T02:36:45.812Z,22.05
2023-02-13T02:39:17.284Z,22.40
2023-02-13T02:42:02.454Z,20.98
2023-02-13T02:44:32.868Z,20.40
2023-02-13T02:47:27.400Z,21.83
2023-02-13T02:50:25.224Z,24.88
2023-02-13T02:52:58.948Z,22.40
2023-02-13T02:55:50.310Z,23.23
2023-02-13T02:58:50.255Z,22.50
2023-02-13T03:04:23.613Z,20.33
2023-02-13T03:07:04.697Z,20.15
2023-02-13T03:10:01.455Z,23.48
2023-02-13T03:12:54.577Z,25.42
2023-02-13T03:15:24.190Z,30.83
2023-02-13T03:18:09.565Z,24.50
2023-02-13T03:21:11.872Z,22.65
2023-02-13T03:23:51.544Z,21.55
2023-02-13T03:26:33.627Z,22.17
2023-02-13T03:29:51.595Z,23.10
2023-02-13T03:32:48.664Z,20.58
2023-02-13T03:35:56.680Z,22.75
2023-02-13T03:38:32.782Z,21.55
2023-02-13T03:41:19.861Z,25.67
2023-02-13T03:44:09.078Z,31.08
2023-02-13T03:46:42.290Z,36.28
2023-02-13T03:49:38.823Z,32.03
2023-02-13T03:52:14.489Z,30.52
2023-02-13T03:55:36.833Z,29.23
2023-02-13T03:58:28.303Z,27.35
2023-02-13T04:01:03.204Z,27.85
2023-02-13T04:03:57.818Z,25.92
2023-02-13T04:06:32.605Z,26.10
2023-02-13T04:08:59.822Z,25.50
2023-02-13T04:11:34.001Z,25.02
2023-02-13T04:14:08.199Z,26.70
2023-02-13T04:16:43.192Z,24.33
2023-02-13T04:19:11.564Z,24.38
2023-02-13T04:21:40.717Z,27.23
2023-02-13T04:24:09.177Z,28.95
2023-02-13T04:26:40.238Z,24.40
2023-02-13T04:29:07.933Z,26.50
2023-02-13T04:31:35.474Z,26.08
2023-02-13T04:34:02.782Z,27.42
2023-02-13T04:36:29.890Z,27.45
2023-02-13T04:38:57.147Z,27.77
2023-02-13T04:41:24.290Z,29.92
2023-02-13T04:43:52.757Z,39.95
2023-02-13T04:46:19.979Z,31.08
2023-02-13T04:48:47.022Z,34.10
2023-02-13T04:51:14.789Z,26.95
2023-02-13T04:53:41.984Z,26.50
2023-02-13T04:56:09.029Z,24.90
2023-02-13T04:58:36.125Z,26.70
2023-02-13T05:01:03.472Z,27.25
2023-02-13T05:03:30.570Z,25.92
2023-02-13T05:05:57.637Z,24.58
2023-02-13T05:08:24.987Z,24.85
2023-02-13T05:10:51.995Z,25.73
2023-02-13T05:13:21.849Z,25.67
2023-02-13T05:18:16.361Z,23.65
2023-02-13T05:20:43.342Z,25.20
2023-02-13T05:23:24.376Z,25.30
2023-02-13T05:25:50.935Z,25.00
2023-02-13T05:28:36.207Z,24.65
2023-02-13T05:31:03.170Z,23.67
2023-02-13T05:33:29.939Z,24.85
2023-02-13T05:35:57.711Z,24.90
2023-02-13T05:38:24.321Z,24.58
2023-02-13T05:40:50.930Z,22.55
2023-02-13T05:43:17.555Z,23.80
2023-02-13T05:45:44.195Z,23.88
2023-02-13T05:48:10.738Z,23.45
2023-02-13T05:50:37.406Z,23.17
2023-02-13T05:53:04.041Z,22.75
2023-02-13T05:55:30.610Z,22.17
2023-02-13T05:57:58.299Z,23.52
2023-02-13T06:00:25.395Z,23.70
2023-02-13T06:02:52.378Z,23.23
2023-02-13T06:05:18.994Z,26.70
2023-02-13T06:07:45.550Z,25.45
2023-02-13T06:10:12.135Z,27.30
2023-02-13T06:12:38.715Z,25.63
2023-02-13T06:15:06.195Z,27.35
2023-02-13T06:17:32.775Z,36.10
2023-02-13T06:19:59.293Z,30.13
2023-02-13T06:22:25.883Z,30.85
2023-02-13T06:24:52.481Z,29.27
2023-02-13T06:27:19.158Z,27.83
2023-02-13T06:29:45.763Z,24.77
2023-02-13T06:32:12.365Z,28.73
2023-02-13T06:34:39.017Z,29.67
2023-02-13T06:37:05.596Z,29.85
2023-02-13T06:39:32.178Z,39.90
2023-02-13T06:41:59.835Z,52.47
2023-02-13T06:44:26.416Z,73.53
2023-02-13T06:46:53.106Z,73.55
2023-02-13T06:49:19.693Z,81.13
2023-02-13T06:51:46.205Z,77.55
2023-02-13T06:54:12.738Z,83.88
2023-02-13T06:56:39.302Z,97.47
2023-02-13T06:59:05.878Z,90.38
2023-02-13T07:01:33.032Z,91.30
2023-02-13T07:03:59.594Z,87.47
2023-02-13T07:06:26.201Z,84.95
2023-02-13T07:08:55.468Z,84.07
2023-02-13T07:11:24.438Z,85.13
2023-02-13T07:13:51.310Z,86.35
2023-02-13T07:16:17.924Z,79.97
2023-02-13T07:18:44.654Z,80.95
2023-02-13T07:21:11.324Z,80.28
2023-02-13T07:23:38.373Z,77.80
2023-02-13T07:26:05.180Z,72.40
2023-02-13T07:28:32.186Z,71.10
2023-02-13T07:31:03.475Z,67.18
2023-02-13T07:33:30.062Z,60.13
2023-02-13T07:35:56.608Z,55.58
2023-02-13T07:38:23.185Z,55.80
2023-02-13T07:40:49.742Z,55.10
2023-02-13T07:43:16.438Z,56.17
2023-02-13T07:45:43.045Z,55.60
2023-02-13T07:48:09.814Z,58.08
2023-02-13T07:50:36.390Z,56.15
2023-02-13T07:53:03.035Z,55.67
2023-02-13T07:55:30.317Z,51.97
2023-02-13T07:57:57.226Z,52.65
2023-02-13T08:00:24.051Z,51.05
2023-02-13T08:02:50.605Z,49.08
2023-02-13T08:05:17.263Z,44.88
2023-02-13T08:07:43.833Z,47.90
2023-02-13T08:10:31.750Z,45.28
2023-02-13T08:12:58.646Z,48.78
2023-02-13T08:15:26.012Z,45.92
2023-02-13T08:17:52.652Z,44.05
2023-02-13T08:20:19.722Z,44.97
2023-02-13T08:22:46.295Z,41.58
2023-02-13T08:25:13.203Z,37.00
2023-02-13T08:27:39.770Z,37.17
2023-02-13T08:30:07.059Z,35.83
2023-02-13T08:32:44.929Z,36.13
2023-02-13T08:35:19.595Z,34.65
2023-02-13T08:37:47.607Z,35.13
2023-02-13T08:40:14.927Z,32.58
2023-02-13T08:42:41.612Z,36.78
2023-02-13T08:45:10.530Z,32.40
2023-02-13T08:47:38.242Z,30.88
2023-02-13T08:50:05.292Z,31.02
2023-02-13T08:52:31.942Z,33.60
2023-02-13T08:54:58.534Z,38.30
2023-02-13T08:57:25.169Z,33.22
2023-02-13T08:59:51.735Z,32.28
2023-02-13T09:02:18.309Z,32.47
2023-02-13T09:04:44.917Z,32.80
2023-02-13T09:07:11.497Z,32.65
2023-02-13T09:09:38.292Z,33.08
2023-02-13T09:12:05.223Z,32.60
2023-02-13T09:14:31.954Z,35.47
2023-02-13T09:16:58.653Z,36.95
2023-02-13T09:19:25.360Z,37.65
2023-02-13T09:21:51.912Z,35.15
2023-02-13T09:24:18.503Z,36.13
2023-02-13T09:26:45.143Z,37.70
2023-02-13T09:29:11.776Z,36.22
2023-02-13T09:31:38.466Z,35.63
2023-02-13T09:34:05.039Z,34.72
2023-02-13T09:36:31.697Z,34.95
2023-02-13T09:38:58.387Z,32.40
2023-02-13T09:41:39.900Z,31.80
2023-02-13T09:44:33.925Z,23.85
2023-02-13T09:47:44.092Z,24.13
2023-02-13T09:52:45.879Z,23.42
2023-02-13T09:55:19.701Z,22.63
2023-02-13T09:58:16.341Z,23.50
2023-02-13T10:00:50.787Z,23.95
2023-02-13T10:03:41.774Z,25.67
2023-02-13T10:06:25.031Z,26.27
2023-02-13T10:09:13.065Z,26.70
2023-02-13T10:12:25.535Z,28.05
2023-02-13T10:15:13.056Z,29.83
2023-02-13T10:17:44.169Z,31.08
2023-02-13T10:20:46.071Z,31.33
2023-02-13T10:23:22.335Z,33.53
2023-02-13T10:25:57.590Z,34.60
2023-02-13T10:28:40.799Z,26.70
2023-02-13T10:31:12.795Z,23.63
2023-02-13T10:33:58.946Z,21.27
2023-02-13T10:36:30.342Z,21.83
2023-02-13T10:39:02.896Z,21.85
2023-02-13T10:41:47.533Z,20.80
2023-02-13T10:44:14.049Z,19.50
2023-02-13T10:46:44.017Z,22.08
2023-02-13T10:49:31.169Z,23.73
2023-02-13T10:52:48.787Z,23.98
2023-02-13T10:55:25.627Z,20.98
2023-02-13T10:58:13.583Z,21.90
2023-02-13T11:00:57.971Z,21.88
2023-02-13T11:03:27.178Z,24.05
2023-02-13T11:05:55.843Z,25.02
2023-02-13T11:08:40.550Z,25.27
2023-02-13T11:11:33.575Z,26.80
2023-02-13T11:14:21.352Z,26.17
2023-02-13T11:16:47.831Z,25.63
2023-02-13T11:19:19.032Z,26.13
2023-02-13T11:21:48.493Z,27.70
2023-02-13T11:24:21.856Z,29.45
2023-02-13T11:26:52.718Z,29.48
2023-02-13T11:29:29.421Z,30.48
2023-02-13T11:32:19.938Z,28.05
2023-02-13T11:34:48.226Z,28.52
2023-02-13T11:37:29.055Z,26.73
2023-02-13T11:39:58.920Z,28.02
2023-02-13T11:42:29.293Z,26.58
2023-02-13T11:45:02.516Z,27.40
2023-02-13T11:47:39.243Z,29.73
2023-02-13T11:50:27.983Z,28.73
2023-02-13T11:53:18.023Z,30.23
2023-02-13T11:55:46.478Z,27.80
2023-02-13T11:58:15.786Z,28.77
2023-02-13T12:00:43.651Z,28.50
2023-02-13T12:03:38.133Z,26.00
2023-02-13T12:06:14.998Z,28.27
2023-02-13T12:08:46.096Z,26.90
2023-02-13T12:11:37.065Z,25.55
2023-02-13T12:14:03.759Z,27.48
2023-02-13T12:16:36.279Z,26.10
2023-02-13T12:19:07.750Z,23.20
2023-02-13T12:22:06.212Z,22.63
2023-02-13T12:24:48.117Z,22.00
2023-02-13T12:27:33.327Z,22.63
2023-02-13T12:30:12.148Z,22.70
2023-02-13T12:32:57.527Z,23.27
2023-02-13T12:35:41.957Z,22.92
2023-02-13T12:38:36.440Z,22.67
2023-02-13T12:41:22.728Z,23.55
2023-02-13T12:43:58.152Z,23.75
2023-02-13T12:46:43.464Z,22.88
2023-02-13T12:49:28.535Z,21.45
2023-02-13T12:52:16.356Z,16.63
2023-02-13T12:55:04.518Z,15.65
2023-02-13T12:57:41.235Z,14.55
2023-02-13T13:00:35.739Z,16.20
2023-02-13T13:03:20.720Z,14.25
2023-02-13T13:06:15.317Z,15.35
2023-02-13T13:08:47.898Z,13.15
2023-02-13T13:11:45.614Z,12.88
2023-02-13T13:14:12.120Z,12.07
2023-02-13T13:17:17.167Z,12.38
2023-02-13T13:20:05.278Z,11.32
2023-02-13T13:22:32.949Z,13.18
2023-02-13T13:25:08.680Z,12.82
2023-02-13T13:27:44.568Z,12.40
2023-02-13T13:30:35.734Z,11.80
2023-02-13T13:33:09.879Z,11.73
2023-02-13T13:35:41.816Z,9.32
2023-02-13T13:38:43.431Z,10.27
2023-02-13T13:41:23.922Z,10.13
2023-02-13T13:44:11.526Z,10.48
2023-02-13T13:47:07.554Z,12.10
2023-02-13T13:49:42.071Z,11.38
2023-02-13T13:52:27.352Z,10.85
2023-02-13T13:54:55.901Z,10.98
2023-02-13T13:57:26.245Z,10.82
2023-02-13T14:00:00.195Z,11.80
2023-02-13T14:02:48.226Z,10.35
2023-02-13T14:05:25.536Z,10.30
2023-02-13T14:08:04.306Z,9.93
2023-02-13T14:10:30.894Z,9.70
2023-02-13T14:12:57.397Z,10.95
2023-02-13T14:15:44.540Z,11.10
2023-02-13T14:18:13.724Z,11.18
2023-02-13T14:20:44.208Z,10.60
2023-02-13T14:23:42.915Z,11.48
2023-02-13T14:26:15.531Z,10.30
2023-02-13T14:28:50.884Z,9.88
2023-02-13T14:31:27.535Z,9.77
2023-02-13T14:34:23.010Z,9.75
2023-02-13T14:37:07.106Z,9.80
2023-02-13T14:39:37.978Z,11.00
2023-02-13T14:42:22.153Z,11.57
2023-02-13T14:44:51.606Z,10.18
2023-02-13T14:47:27.178Z,10.20
2023-02-13T14:49:55.659Z,11.85
2023-02-13T14:52:27.680Z,11.05
2023-02-13T14:54:59.428Z,11.82
2023-02-13T14:57:35.032Z,11.98
2023-02-13T15:00:27.214Z,11.05
2023-02-13T15:03:04.043Z,12.77
2023-02-13T15:05:34.061Z,14.63
2023-02-13T15:10:51.801Z,10.90
2023-02-13T15:13:31.546Z,11.30
2023-02-13T15:16:03.096Z,12.15
2023-02-13T15:18:37.690Z,11.52
2023-02-13T15:21:05.028Z,11.82
2023-02-13T15:23:34.726Z,12.38
2023-02-13T15:26:04.461Z,12.60
2023-02-13T15:28:31.815Z,12.43
2023-02-13T15:31:07.036Z,12.85
2023-02-13T15:33:48.640Z,13.05
2023-02-13T15:36:25.451Z,13.13
2023-02-13T15:39:09.859Z,11.55
2023-02-13T15:41:43.789Z,13.25
2023-02-13T15:44:18.918Z,12.68
2023-02-13T15:46:48.764Z,12.02
2023-02-13T15:49:26.910Z,13.35
2023-02-13T15:52:04.327Z,13.23
2023-02-13T15:54:34.311Z,12.43
2023-02-13T15:59:35.022Z,13.98
2023-02-13T16:02:04.442Z,14.77
2023-02-13T16:04:31.786Z,14.07
2023-02-13T16:06:59.081Z,15.73
2023-02-13T16:09:34.161Z,16.20
2023-02-13T16:12:24.438Z,16.02
2023-02-13T16:15:00.119Z,15.43
2023-02-13T16:17:31.910Z,14.65
2023-02-13T16:20:11.258Z,13.80
2023-02-13T16:22:43.038Z,17.27
2023-02-13T16:25:12.585Z,15.75
2023-02-13T16:27:45.487Z,21.67
2023-02-13T16:30:36.533Z,16.95
2023-02-13T16:33:19.668Z,17.50
2023-02-13T16:35:55.343Z,21.15
2023-02-13T16:38:21.874Z,26.33
2023-02-13T16:40:48.453Z,21.63
2023-02-13T16:43:35.004Z,23.73
2023-02-13T16:46:19.520Z,18.70
2023-02-13T16:48:59.930Z,17.50
2023-02-13T16:51:55.420Z,19.42
2023-02-13T16:54:30.766Z,20.45
2023-02-13T16:57:14.488Z,23.08
2023-02-13T16:59:47.045Z,22.88
2023-02-13T17:02:19.815Z,25.10
2023-02-13T17:04:55.344Z,22.92
2023-02-13T17:07:28.458Z,24.00
2023-02-13T17:09:59.551Z,24.08
2023-02-13T17:12:27.939Z,25.42
2023-02-13T17:14:56.510Z,28.08
2023-02-13T17:17:23.505Z,20.83
2023-02-13T17:19:50.659Z,20.95
2023-02-13T17:22:30.394Z,24.55
2023-02-13T17:24:58.782Z,21.63
2023-02-13T17:27:25.703Z,24.02
2023-02-13T17:29:52.484Z,20.85
2023-02-13T17:32:23.504Z,21.23
2023-02-13T17:34:50.082Z,29.00
2023-02-13T17:37:22.790Z,31.50
2023-02-13T17:39:50.300Z,30.15
2023-02-13T17:42:23.546Z,25.38
2023-02-13T17:44:50.724Z,31.75
2023-02-13T17:47:18.735Z,21.42
2023-02-13T17:49:45.481Z,20.20
2023-02-13T17:52:27.134Z,22.42
2023-02-13T17:54:53.804Z,19.77
2023-02-13T17:57:20.530Z,19.00
2023-02-13T17:59:47.268Z,25.35
2023-02-13T18:02:19.781Z,23.83
2023-02-13T18:04:47.611Z,33.28
2023-02-13T18:07:17.468Z,25.15
2023-02-13T18:09:44.672Z,27.05
2023-02-13T18:12:14.949Z,36.67
2023-02-13T18:14:42.082Z,32.10
2023-02-13T18:17:09.460Z,25.20
2023-02-13T18:19:37.682Z,31.48
2023-02-13T18:22:06.558Z,30.08
2023-02-13T18:24:35.031Z,28.38
2023-02-13T18:27:02.328Z,28.25
2023-02-13T18:29:29.071Z,21.10
2023-02-13T18:31:56.861Z,49.20
2023-02-13T18:34:24.643Z,31.98
2023-02-13T18:36:51.303Z,27.55
2023-02-13T18:39:18.003Z,32.35
2023-02-13T18:41:44.770Z,26.77
2023-02-13T18:44:17.329Z,48.22
2023-02-13T18:46:50.004Z,55.92
2023-02-13T18:49:16.758Z,50.08
2023-02-13T18:51:44.475Z,36.80
2023-02-13T18:54:11.397Z,39.58
2023-02-13T18:56:38.006Z,48.90
2023-02-13T18:59:04.873Z,37.30
2023-02-13T19:01:31.576Z,38.15
2023-02-13T19:03:58.213Z,35.83
2023-02-13T19:06:25.686Z,44.03
2023-02-13T19:08:52.396Z,40.42
2023-02-13T19:11:22.521Z,39.35
2023-02-13T19:13:52.792Z,43.40
2023-02-13T19:16:19.625Z,44.65
2023-02-13T19:18:48.712Z,42.40
2023-02-13T19:21:15.611Z,35.60
2023-02-13T19:23:42.187Z,29.45
2023-02-13T19:26:17.112Z,28.00
2023-02-13T19:28:44.130Z,31.50
2023-02-13T19:31:17.737Z,34.83
2023-02-13T19:33:44.952Z,37.63
2023-02-13T19:36:14.010Z,29.23
2023-02-13T19:38:43.270Z,29.63
2023-02-13T19:41:12.336Z,27.75
2023-02-13T19:43:39.156Z,31.07
2023-02-13T19:46:13.248Z,35.33
2023-02-13T19:48:40.392Z,34.83
2023-02-13T19:51:12.683Z,34.55
2023-02-13T19:53:39.516Z,29.52
2023-02-13T19:56:09.976Z,28.08
2023-02-13T19:58:37.863Z,35.03
2023-02-13T20:01:16.855Z,52.97
2023-02-13T20:03:44.105Z,42.28
2023-02-13T20:06:13.566Z,23.85
2023-02-13T20:08:42.646Z,27.80
2023-02-13T20:11:11.646Z,25.70
2023-02-13T20:13:38.981Z,32.20
2023-02-13T20:16:07.472Z,25.08
2023-02-13T20:18:34.453Z,28.42
2023-02-13T20:21:04.633Z,30.23
2023-02-13T20:23:31.212Z,33.65
2023-02-13T20:26:03.688Z,43.55
2023-02-13T20:28:30.418Z,39.58
2023-02-13T20:30:57.566Z,39.95
2023-02-13T20:33:24.320Z,35.42
2023-02-13T20:35:51.134Z,37.92
2023-02-13T20:38:17.870Z,37.30
2023-02-13T20:40:44.419Z,31.10
2023-02-13T20:43:10.946Z,29.52
2023-02-13T20:45:37.547Z,24.73
2023-02-13T20:48:04.153Z,27.27
2023-02-13T20:50:31.208Z,25.17
2023-02-13T20:52:58.569Z,26.40
2023-02-13T20:55:25.182Z,24.92
2023-02-13T20:57:51.800Z,25.42
2023-02-13T21:00:18.500Z,24.52
2023-02-13T21:02:45.127Z,25.90
2023-02-13T21:05:11.807Z,22.45
2023-02-13T21:07:38.380Z,22.60
2023-02-13T21:10:06.477Z,21.10
2023-02-13T21:12:33.151Z,18.98
2023-02-13T21:14:59.704Z,17.70
2023-02-13T21:17:26.278Z,16.85
2023-02-13T21:19:52.855Z,15.85
2023-02-13T21:22:19.390Z,15.00
2023-02-13T21:24:45.934Z,16.42
2023-02-13T21:27:12.592Z,16.42
2023-02-13T21:29:39.380Z,17.27
2023-02-13T21:32:06.064Z,19.10
2023-02-13T21:34:32.717Z,20.35
2023-02-13T21:36:59.305Z,16.63
2023-02-13T21:39:25.877Z,16.73
2023-02-13T21:41:52.499Z,17.92
2023-02-13T21:44:19.067Z,18.00
2023-02-13T21:46:46.071Z,19.45
2023-02-13T21:49:15.646Z,17.30
2023-02-13T21:51:42.616Z,19.70
2023-02-13T21:54:10.313Z,18.95
2023-02-13T21:56:39.800Z,15.70
2023-02-13T21:59:06.868Z,16.73
2023-02-13T22:01:36.693Z,13.30
2023-02-13T22:04:07.980Z,15.10
2023-02-13T22:06:37.633Z,14.48
2023-02-13T22:09:12.543Z,16.45
2023-02-13T22:11:40.184Z,15.15
2023-02-13T22:14:10.733Z,14.05
2023-02-13T22:16:38.762Z,12.88
2023-02-13T22:19:07.068Z,13.02
2023-02-13T22:21:35.270Z,15.48
2023-02-13T22:24:02.286Z,16.13
2023-02-13T22:26:31.824Z,13.93
2023-02-13T22:29:00.621Z,14.45
2023-02-13T22:31:27.286Z,15.95
2023-02-13T22:34:03.360Z,15.55
2023-02-13T22:36:35.310Z,13.85
2023-02-13T22:39:01.958Z,24.73
2023-02-13T22:41:28.982Z,19.80
2023-02-13T22:43:55.907Z,30.27
2023-02-13T22:46:29.335Z,50.15
2023-02-13T22:48:56.452Z,35.35
2023-02-13T22:51:31.633Z,47.63
2023-02-13T22:53:59.259Z,24.42
2023-02-13T22:56:27.512Z,47.78
2023-02-13T22:58:54.333Z,36.35
2023-02-13T23:01:22.593Z,37.05
2023-02-13T23:03:49.524Z,16.73
2023-02-13T23:06:16.728Z,14.00
2023-02-13T23:08:44.317Z,24.20
2023-02-13T23:11:32.462Z,15.40
2023-02-13T23:13:59.582Z,18.90
2023-02-13T23:16:26.810Z,15.45
2023-02-13T23:18:56.159Z,11.35
2023-02-13T23:21:25.131Z,11.18
2023-02-13T23:23:51.820Z,10.93
2023-02-13T23:26:18.870Z,11.13
2023-02-13T23:28:45.500Z,10.50
2023-02-13T23:31:12.310Z,10.30
2023-02-13T23:33:38.930Z,10.13
2023-02-13T23:36:07.068Z,10.13
2023-02-13T23:38:33.580Z,10.07
2023-02-13T23:41:09.456Z,10.23
2023-02-13T23:43:36.256Z,10.57
2023-02-13T23:46:06.893Z,56.80
2023-02-13T23:48:34.081Z,69.05
2023-02-13T23:51:01.515Z,89.05
2023-02-13T23:53:28.384Z,36.90
2023-02-13T23:55:55.106Z,54.67
2023-02-13T23:58:22.040Z,12.63
